Huvudsida
METAR-TAF:

METAR-TAF

Flygplatser :

Ålesunds flygplats. Vigra

Ålesund, Norge

latitud: 62-34N, longitud: 006-07E, höjd: 2 m

Aktuellt väderrapport

Denna rapport gjordes för 9 minuter sedan, klockan 18:50 UTC
Vind 18 kt från sydväst
Temperatur 13°C
Fuktighet 77%
Tryck 1019 hPa
Sikt 10 km eller mer
Brutna moln på en höjd av 2100 ft

METAR: ENAL 201850Z 22018KT 9999 BKN021 13/09 Q1019

Tid: 20:59 (18:59 UTC)

Väderprognos

Denna rapport gjordes för 1 timme och 59 minuter sedan, klockan 17:00 UTC
Prognos gäller från 20 kl. 18 UTC till 20 kl. 21 UTC
Vind 18 kt från väst/sydväst
Sikt 10 km eller mer
Spridda moln på en höjd av 1500 ft
Brutna moln på en höjd av 3000 ft
lätt duggregn
Temporärt
från 20 kl. 18 UTC till 20 kl. 21 UTC
Vind 20 kt från väst/sydväst i byarna ända upp till 30 kt
Brutna moln på en höjd av 1400 ft

TAF: ENAL 201700Z 2018/2021 24018KT 9999 -DZ SCT015 BKN030 TEMPO 2018/2021 24020G30KT BKN014

Aktuella väderrapporter och prognoser från 4000 flygplatser (METAR- och TAF-rapporter).

De tillgängliga stationerna syns som gula och röda prickar på kartan.

För musen över prickarna för att se namnen på stationerna.

Klicka sedan för att få väderrapporter och prognoser.

För att ändra kartan: Klicka på de gröna knapparna med ett svart kors på för att zooma in; den gröna knappen med ett streck på för att zooma ut; eller på de gröna pilarna för angränsande kartor.


METAR-TAF: